Time;durP1;ratioP1;P1;durP2;ratioP2;P2;SDS_P1;SDS_P2;PMS_P1;PMS_P2;Temp;Humidity;BMP_temperature;BMP_pressure;BME280_temperature;BME280_humidity;BME280_pressure;Samples;Min_cycle;Max_cycle;Signal;HPM_P1;HPM_P2
2022/07/02 00:00:02;;;;;;;7.65;2.22;;;;;;;;;;6117585;23;20037;-57
2022/07/02 00:02:37;;;;;;;15.38;2.30;;;;;;;;;;6118893;23;20022;-59
2022/07/02 00:05:06;;;;;;;8.55;1.55;;;;;;;;;;6118887;23;20026;-59
2022/07/02 00:07:33;;;;;;;10.15;1.70;;;;;;;;;;6118157;23;20026;-59
2022/07/02 00:10:07;;;;;;;6.80;1.85;;;;;;;;;;6118481;23;20472;-59
2022/07/02 00:12:35;;;;;;;9.00;1.90;;;;;;;;;;6118898;23;20034;-59
2022/07/02 00:15:02;;;;;;;4.05;1.50;;;;;;;;;;6117219;23;20030;-59
2022/07/02 00:17:37;;;;;;;10.07;2.00;;;;;;;;;;6118942;23;20025;-54
2022/07/02 00:20:05;;;;;;;6.78;1.60;;;;;;;;;;6117974;23;20240;-66
2022/07/02 00:22:33;;;;;;;10.52;1.42;;;;;;;;;;6118062;23;20333;-66
2022/07/02 00:25:06;;;;;;;11.15;1.83;;;;;;;;;;6117766;23;20217;-66
2022/07/02 00:27:34;;;;;;;11.25;1.92;;;;;;;;;;6118309;23;20022;-66
2022/07/02 00:30:03;;;;;;;9.38;2.38;;;;;;;;;;6117574;23;20084;-65
2022/07/02 00:32:37;;;;;;;9.50;1.70;;;;;;;;;;6117781;23;20349;-66
2022/07/02 00:35:09;;;;;;;4.05;1.40;;;;;;;;;;6118529;23;20029;-66
2022/07/02 00:37:37;;;;;;;4.75;1.45;;;;;;;;;;6118422;23;20026;-60
2022/07/02 00:40:11;;;;;;;4.05;1.50;;;;;;;;;;6118178;23;20022;-60
2022/07/02 00:42:39;;;;;;;7.32;1.40;;;;;;;;;;6118046;23;20058;-60
2022/07/02 00:45:06;;;;;;;4.53;1.30;;;;;;;;;;6117587;23;20499;-60
2022/07/02 00:47:41;;;;;;;8.00;1.40;;;;;;;;;;6115397;23;20394;-60
2022/07/02 00:50:08;;;;;;;5.25;1.90;;;;;;;;;;6117695;23;20030;-60
2022/07/02 00:52:36;;;;;;;6.50;1.50;;;;;;;;;;6118454;23;20037;-60
2022/07/02 00:55:09;;;;;;;4.05;1.50;;;;;;;;;;6118158;23;20029;-59
2022/07/02 00:57:36;;;;;;;8.82;1.45;;;;;;;;;;6117356;23;20026;-56
2022/07/02 01:00:04;;;;;;;6.07;1.83;;;;;;;;;;6117865;23;20034;-54
2022/07/02 01:02:38;;;;;;;6.35;1.63;;;;;;;;;;6117940;23;20094;-56
2022/07/02 01:05:06;;;;;;;8.80;2.03;;;;;;;;;;6118249;23;20030;-57
2022/07/02 01:07:34;;;;;;;7.53;1.65;;;;;;;;;;6117569;23;20049;-57
2022/07/02 01:10:18;;;;;;;7.63;1.60;;;;;;;;;;6118023;23;20022;-57
2022/07/02 01:12:46;;;;;;;5.88;2.13;;;;;;;;;;6118481;23;20030;-58
2022/07/02 01:15:20;;;;;;;4.80;1.48;;;;;;;;;;6118095;23;20026;-60
2022/07/02 01:17:47;;;;;;;9.93;1.83;;;;;;;;;;6118210;23;20045;-60
2022/07/02 01:20:15;;;;;;;8.73;1.88;;;;;;;;;;6091751;23;20052;-60
2022/07/02 01:22:48;;;;;;;7.72;1.98;;;;;;;;;;6118476;23;20041;-61
2022/07/02 01:25:15;;;;;;;6.05;1.70;;;;;;;;;;6118201;23;20030;-60
2022/07/02 01:27:43;;;;;;;7.20;2.00;;;;;;;;;;6118426;23;20525;-60
2022/07/02 01:30:16;;;;;;;5.30;2.00;;;;;;;;;;6117997;23;20026;-60
2022/07/02 01:32:44;;;;;;;8.85;1.83;;;;;;;;;;6117047;23;20399;-65
2022/07/02 01:35:11;;;;;;;9.57;2.20;;;;;;;;;;6117185;23;20033;-54
2022/07/02 01:37:44;;;;;;;6.00;2.30;;;;;;;;;;6117942;23;20057;-64
2022/07/02 01:40:18;;;;;;;4.15;1.90;;;;;;;;;;6092127;23;20088;-65
2022/07/02 01:42:52;;;;;;;9.75;2.13;;;;;;;;;;6118114;23;20046;-64
2022/07/02 01:45:19;;;;;;;6.95;1.80;;;;;;;;;;6116674;23;20026;-64
2022/07/02 01:47:47;;;;;;;7.55;2.10;;;;;;;;;;6117130;23;20026;-63
2022/07/02 01:50:22;;;;;;;10.18;2.58;;;;;;;;;;6115874;23;20026;-62
2022/07/02 01:53:04;;;;;;;5.47;2.42;;;;;;;;;;6117346;23;20021;-59
2022/07/02 01:55:38;;;;;;;7.15;1.88;;;;;;;;;;6117143;23;20026;-67
2022/07/02 01:58:06;;;;;;;12.98;2.30;;;;;;;;;;6118109;23;20030;-67
2022/07/02 02:00:33;;;;;;;5.53;2.05;;;;;;;;;;6117565;23;20026;-67
2022/07/02 02:03:06;;;;;;;8.10;1.83;;;;;;;;;;6117639;23;20464;-67
2022/07/02 02:05:34;;;;;;;10.65;2.67;;;;;;;;;;6117085;23;20022;-67
2022/07/02 02:08:01;;;;;;;11.13;2.78;;;;;;;;;;6118083;23;20141;-67
2022/07/02 02:10:34;;;;;;;6.40;1.80;;;;;;;;;;6116226;23;20053;-67
2022/07/02 02:13:02;;;;;;;10.73;2.35;;;;;;;;;;6117846;23;20026;-57
2022/07/02 02:15:29;;;;;;;11.45;2.30;;;;;;;;;;6114996;23;20134;-59
2022/07/02 02:18:02;;;;;;;9.40;2.45;;;;;;;;;;6117157;23;20071;-59
2022/07/02 02:20:30;;;;;;;13.40;3.30;;;;;;;;;;6116645;23;20022;-59
2022/07/02 02:22:57;;;;;;;10.40;2.50;;;;;;;;;;6092498;23;20026;-59
2022/07/02 02:25:32;;;;;;;8.75;2.80;;;;;;;;;;6117390;23;20022;-60
2022/07/02 02:27:59;;;;;;;;;;;;;;;;;;6117357;23;20080;-59
2022/07/02 02:30:26;;;;;;;11.57;2.58;;;;;;;;;;6117412;23;19988;-61
2022/07/02 02:33:00;;;;;;;8.45;3.05;;;;;;;;;;6115299;23;20061;-69
2022/07/02 02:35:28;;;;;;;11.40;2.70;;;;;;;;;;6117252;23;20329;-65
2022/07/02 02:37:55;;;;;;;12.95;3.58;;;;;;;;;;6117251;23;20525;-65
2022/07/02 02:40:28;;;;;;;10.18;3.58;;;;;;;;;;6117080;23;20030;-65
2022/07/02 02:42:56;;;;;;;13.70;3.50;;;;;;;;;;6118008;23;20026;-65
2022/07/02 02:45:23;;;;;;;10.73;2.92;;;;;;;;;;6115323;23;20469;-65
2022/07/02 02:47:57;;;;;;;20.13;4.18;;;;;;;;;;6117717;23;20056;-65
2022/07/02 02:50:25;;;;;;;22.20;3.75;;;;;;;;;;6117521;23;20022;-57
2022/07/02 02:52:52;;;;;;;20.25;4.25;;;;;;;;;;6118729;23;20379;-65
2022/07/02 02:55:26;;;;;;;16.88;3.88;;;;;;;;;;6117652;23;20037;-64
2022/07/02 02:57:53;;;;;;;14.23;3.67;;;;;;;;;;6118307;23;20026;-65
2022/07/02 03:00:21;;;;;;;18.60;3.67;;;;;;;;;;6118100;23;20356;-64
2022/07/02 03:02:56;;;;;;;20.33;4.00;;;;;;;;;;6117859;23;20109;-65
2022/07/02 03:05:23;;;;;;;22.48;3.85;;;;;;;;;;6116985;23;20030;-64
2022/07/02 03:07:51;;;;;;;22.85;4.78;;;;;;;;;;6117874;23;20408;-57
2022/07/02 03:10:24;;;;;;;15.00;4.13;;;;;;;;;;6118452;23;20097;-55
2022/07/02 03:12:52;;;;;;;15.18;4.07;;;;;;;;;;6119698;23;20416;-59
2022/07/02 03:15:19;;;;;;;20.02;4.13;;;;;;;;;;6118891;23;20026;-58
2022/07/02 03:17:53;;;;;;;16.52;4.38;;;;;;;;;;6119906;23;20022;-59
2022/07/02 03:20:21;;;;;;;20.70;4.00;;;;;;;;;;6118668;23;20056;-59
2022/07/02 03:22:48;;;;;;;19.90;4.82;;;;;;;;;;6119493;23;20056;-59
2022/07/02 03:25:21;;;;;;;14.65;3.80;;;;;;;;;;6118700;23;20030;-59
2022/07/02 03:27:49;;;;;;;20.73;5.07;;;;;;;;;;6119092;23;20077;-52
2022/07/02 03:30:16;;;;;;;22.58;4.95;;;;;;;;;;6118073;23;20562;-64
2022/07/02 03:32:49;;;;;;;24.90;5.60;;;;;;;;;;6119627;23;20112;-62
2022/07/02 03:35:17;;;;;;;19.23;5.10;;;;;;;;;;6117944;23;20029;-62
2022/07/02 03:37:44;;;;;;;20.05;4.95;;;;;;;;;;6118983;23;20030;-62
2022/07/02 03:40:18;;;;;;;13.20;4.47;;;;;;;;;;6118748;23;20048;-62
2022/07/02 03:42:45;;;;;;;;;;;;;;;;;;6119409;23;20077;-61
2022/07/02 03:45:12;;;;;;;20.45;5.38;;;;;;;;;;6118531;23;20093;-62
2022/07/02 03:47:46;;;;;;;23.13;5.20;;;;;;;;;;6119485;23;20109;-60
2022/07/02 03:50:13;;;;;;;21.25;5.97;;;;;;;;;;6118687;23;20543;-65
2022/07/02 03:52:41;;;;;;;24.40;5.97;;;;;;;;;;6117771;23;20060;-65
2022/07/02 03:55:21;;;;;;;19.50;5.45;;;;;;;;;;6118119;23;20460;-65
2022/07/02 03:57:48;;;;;;;28.63;5.55;;;;;;;;;;6118828;23;20022;-65
2022/07/02 04:00:22;;;;;;;24.58;6.22;;;;;;;;;;6093625;23;20527;-65
2022/07/02 04:02:50;;;;;;;17.58;5.32;;;;;;;;;;6119351;23;20077;-65
2022/07/02 04:05:17;;;;;;;17.60;5.55;;;;;;;;;;6118644;23;20034;-65
2022/07/02 04:07:51;;;;;;;20.20;5.88;;;;;;;;;;6118824;23;20022;-59
2022/07/02 04:10:18;;;;;;;17.25;5.72;;;;;;;;;;6118710;23;20026;-66
2022/07/02 04:12:45;;;;;;;13.85;5.90;;;;;;;;;;6118617;23;20272;-65
2022/07/02 04:15:20;;;;;;;27.02;6.18;;;;;;;;;;6118258;23;20026;-65
2022/07/02 04:17:47;;;;;;;14.00;4.75;;;;;;;;;;6118965;23;20026;-65
2022/07/02 04:20:14;;;;;;;25.55;6.15;;;;;;;;;;6118383;23;20088;-65
2022/07/02 04:22:49;;;;;;;19.83;5.78;;;;;;;;;;6118217;23;20057;-65
2022/07/02 04:25:16;;;;;;;21.60;6.35;;;;;;;;;;6118123;23;20025;-60
2022/07/02 04:27:43;;;;;;;15.70;6.03;;;;;;;;;;6117099;23;20415;-56
2022/07/02 04:30:17;;;;;;;16.58;5.82;;;;;;;;;;6118701;23;20026;-55
2022/07/02 04:32:45;;;;;;;25.02;6.03;;;;;;;;;;6118093;23;20093;-58
2022/07/02 04:35:12;;;;;;;37.63;7.35;;;;;;;;;;6117870;23;20030;-58
2022/07/02 04:37:45;;;;;;;22.80;7.07;;;;;;;;;;6119147;23;20026;-56
2022/07/02 04:40:13;;;;;;;32.85;6.85;;;;;;;;;;6118172;23;20030;-57
2022/07/02 04:42:40;;;;;;;22.70;7.25;;;;;;;;;;6118195;23;20399;-55
2022/07/02 04:45:13;;;;;;;17.73;5.72;;;;;;;;;;6119427;23;20022;-61
2022/07/02 04:47:41;;;;;;;20.58;6.80;;;;;;;;;;6115534;23;20026;-58
2022/07/02 04:50:08;;;;;;;16.55;5.72;;;;;;;;;;6117708;23;20034;-58
2022/07/02 04:52:55;;;;;;;17.30;5.05;;;;;;;;;;6116633;23;20030;-58
2022/07/02 04:55:29;;;;;;;22.45;5.72;;;;;;;;;;6117792;23;20030;-58
2022/07/02 04:58:03;;;;;;;23.48;5.20;;;;;;;;;;6118443;23;20026;-58
2022/07/02 05:00:30;;;;;;;27.35;6.10;;;;;;;;;;6117185;23;20022;-59
2022/07/02 05:02:58;;;;;;;21.73;5.18;;;;;;;;;;6118214;23;20029;-75
2022/07/02 05:05:31;;;;;;;30.38;5.68;;;;;;;;;;6117289;23;20413;-75
2022/07/02 05:07:59;;;;;;;23.38;5.60;;;;;;;;;;6118896;23;20029;-76
2022/07/02 05:10:26;;;;;;;21.60;5.70;;;;;;;;;;6114781;23;20144;-74
2022/07/02 05:12:59;;;;;;;14.68;4.53;;;;;;;;;;6117682;23;20383;-76
2022/07/02 05:15:27;;;;;;;18.17;4.88;;;;;;;;;;6117342;23;20066;-76
2022/07/02 05:17:54;;;;;;;15.80;4.07;;;;;;;;;;6117007;23;20032;-74
2022/07/02 05:20:28;;;;;;;23.58;5.10;;;;;;;;;;6117630;23;20061;-76
2022/07/02 05:22:55;;;;;;;15.40;4.28;;;;;;;;;;6117477;23;20567;-65
2022/07/02 05:25:22;;;;;;;18.38;4.45;;;;;;;;;;6118677;23;20089;-58
2022/07/02 05:27:56;;;;;;;29.02;5.10;;;;;;;;;;6117171;23;20022;-58
2022/07/02 05:30:24;;;;;;;15.98;4.25;;;;;;;;;;6117338;23;20073;-59
2022/07/02 05:32:51;;;;;;;25.83;4.85;;;;;;;;;;6116938;23;20089;-58
2022/07/02 05:35:24;;;;;;;17.75;4.20;;;;;;;;;;6117368;23;20053;-59
2022/07/02 05:37:52;;;;;;;15.77;4.55;;;;;;;;;;6117390;23;20088;-59
2022/07/02 05:40:19;;;;;;;14.43;3.90;;;;;;;;;;6117231;23;20487;-59
2022/07/02 05:42:52;;;;;;;23.02;4.65;;;;;;;;;;6118568;23;20026;-77
2022/07/02 05:45:19;;;;;;;24.05;4.35;;;;;;;;;;6116938;23;20061;-58
2022/07/02 05:47:47;;;;;;;19.08;4.00;;;;;;;;;;6117139;23;20026;-59
2022/07/02 05:50:20;;;;;;;23.27;4.47;;;;;;;;;;6115149;23;20050;-58
2022/07/02 05:52:54;;;;;;;21.90;3.70;;;;;;;;;;6116883;23;20496;-58
2022/07/02 05:55:28;;;;;;;17.88;4.40;;;;;;;;;;6117273;23;20037;-58
2022/07/02 05:57:55;;;;;;;23.38;4.60;;;;;;;;;;6117184;23;20519;-57
2022/07/02 06:00:23;;;;;;;16.20;3.80;;;;;;;;;;6116916;23;20546;-58
2022/07/02 06:02:56;;;;;;;21.08;4.07;;;;;;;;;;6116691;23;20026;-65
2022/07/02 06:08:16;;;;;;;24.67;4.75;;;;;;;;;;6117052;23;20085;-66
2022/07/02 06:10:44;;;;;;;17.10;3.75;;;;;;;;;;6117161;23;20044;-65
2022/07/02 06:13:11;;;;;;;14.10;3.47;;;;;;;;;;6116351;23;20021;-65
2022/07/02 06:15:45;;;;;;;14.32;3.25;;;;;;;;;;6117728;23;20026;-66
2022/07/02 06:18:13;;;;;;;16.35;3.33;;;;;;;;;;6118217;23;20025;-62
2022/07/02 06:20:40;;;;;;;19.02;3.65;;;;;;;;;;6117827;23;20025;-51
2022/07/02 06:23:14;;;;;;;22.58;4.05;;;;;;;;;;6118722;23;20026;-65
2022/07/02 06:25:41;;;;;;;21.60;3.60;;;;;;;;;;6118541;23;20077;-65
2022/07/02 06:28:08;;;;;;;14.65;2.88;;;;;;;;;;6118907;23;20459;-65
2022/07/02 06:30:42;;;;;;;17.13;3.40;;;;;;;;;;6117448;23;20514;-65
2022/07/02 06:33:09;;;;;;;18.50;3.35;;;;;;;;;;6117533;23;20026;-66
2022/07/02 06:35:36;;;;;;;16.35;3.30;;;;;;;;;;6118012;23;20452;-65
2022/07/02 06:38:11;;;;;;;21.40;3.10;;;;;;;;;;6117097;23;20542;-51
2022/07/02 06:40:38;;;;;;;;;;;;;;;;;;6117962;23;20037;-71
2022/07/02 06:43:05;;;;;;;13.63;2.67;;;;;;;;;;6116898;23;20374;-71
2022/07/02 06:45:40;;;;;;;16.65;3.20;;;;;;;;;;6116277;23;20022;-72
2022/07/02 06:48:07;;;;;;;15.55;2.72;;;;;;;;;;6114741;23;20037;-71
2022/07/02 06:50:49;;;;;;;20.38;3.17;;;;;;;;;;6116832;23;20022;-71
2022/07/02 06:53:30;;;;;;;20.15;3.40;;;;;;;;;;6116959;23;20064;-71
2022/07/02 06:55:57;;;;;;;12.57;3.15;;;;;;;;;;6116494;23;20030;-70
2022/07/02 06:58:31;;;;;;;13.35;2.90;;;;;;;;;;6116573;23;20037;-62
2022/07/02 07:00:59;;;;;;;19.27;3.30;;;;;;;;;;6116495;23;20057;-48
2022/07/02 07:03:26;;;;;;;13.20;2.80;;;;;;;;;;6116744;23;20029;-53
2022/07/02 07:06:00;;;;;;;19.10;3.58;;;;;;;;;;6116417;23;20356;-53
2022/07/02 07:08:27;;;;;;;15.88;3.30;;;;;;;;;;6117143;23;20049;-53
2022/07/02 07:10:54;;;;;;;17.77;3.65;;;;;;;;;;6116685;23;20033;-54
2022/07/02 07:13:28;;;;;;;14.63;3.10;;;;;;;;;;6115776;23;20468;-50
2022/07/02 07:15:56;;;;;;;11.65;3.15;;;;;;;;;;6117369;23;20088;-61
2022/07/02 07:18:23;;;;;;;18.23;3.80;;;;;;;;;;6116398;23;20348;-58
2022/07/02 07:20:57;;;;;;;16.38;3.40;;;;;;;;;;6116865;23;20053;-54
2022/07/02 07:23:25;;;;;;;18.45;3.40;;;;;;;;;;6116993;23;20333;-56
2022/07/02 07:25:52;;;;;;;14.00;3.75;;;;;;;;;;6115249;23;20080;-52
2022/07/02 07:28:27;;;;;;;11.00;2.63;;;;;;;;;;6117580;23;20022;-51
2022/07/02 07:30:55;;;;;;;17.88;3.10;;;;;;;;;;6116513;23;20022;-53
2022/07/02 07:33:22;;;;;;;18.08;3.03;;;;;;;;;;6116401;23;20036;-53
2022/07/02 07:35:57;;;;;;;14.45;3.80;;;;;;;;;;6112280;23;20601;-65
2022/07/02 07:38:24;;;;;;;;;;;;;;;;;;6115273;23;20414;-55
2022/07/02 07:40:51;;;;;;;12.38;3.35;;;;;;;;;;6115880;23;20047;-54
2022/07/02 07:43:26;;;;;;;15.30;3.40;;;;;;;;;;6114838;23;20046;-54
2022/07/02 07:45:54;;;;;;;12.18;2.97;;;;;;;;;;6115818;23;20022;-53
2022/07/02 07:48:21;;;;;;;20.33;3.90;;;;;;;;;;6113178;23;20022;-52
2022/07/02 07:50:56;;;;;;;15.48;3.10;;;;;;;;;;6116319;23;20085;-55
2022/07/02 07:53:29;;;;;;;11.30;3.58;;;;;;;;;;6116772;23;20061;-66
2022/07/02 07:56:04;;;;;;;15.27;3.80;;;;;;;;;;6116663;23;20488;-54
2022/07/02 07:58:33;;;;;;;19.15;3.30;;;;;;;;;;6118204;23;20041;-53
2022/07/02 08:01:01;;;;;;;23.00;3.25;;;;;;;;;;6118942;23;20026;-50
2022/07/02 08:03:36;;;;;;;19.33;4.40;;;;;;;;;;6118058;23;20157;-53
2022/07/02 08:06:03;;;;;;;20.38;3.35;;;;;;;;;;6118346;23;20416;-52
2022/07/02 08:08:30;;;;;;;9.75;2.90;;;;;;;;;;6119230;23;20088;-50
2022/07/02 08:11:07;;;;;;;15.07;3.47;;;;;;;;;;6118411;23;20069;-50
2022/07/02 08:13:34;;;;;;;16.63;3.65;;;;;;;;;;6117384;23;20126;-65
2022/07/02 08:16:01;;;;;;;15.90;3.38;;;;;;;;;;6116409;23;20030;-66
2022/07/02 08:18:36;;;;;;;17.63;3.40;;;;;;;;;;6113312;23;20026;-65
2022/07/02 08:21:03;;;;;;;15.27;3.47;;;;;;;;;;6116451;23;20394;-64
2022/07/02 08:23:30;;;;;;;14.80;3.22;;;;;;;;;;6114765;23;20084;-65
2022/07/02 08:26:05;;;;;;;14.25;3.20;;;;;;;;;;6117072;23;20434;-65
2022/07/02 08:28:32;;;;;;;15.13;3.30;;;;;;;;;;6114313;23;20117;-65
2022/07/02 08:30:59;;;;;;;13.68;2.95;;;;;;;;;;6118246;23;20038;-65
2022/07/02 08:33:34;;;;;;;6.82;2.63;;;;;;;;;;6118363;23;20029;-64
2022/07/02 08:36:01;;;;;;;9.77;2.78;;;;;;;;;;6118244;23;20130;-65
2022/07/02 08:38:28;;;;;;;7.95;2.53;;;;;;;;;;6117190;23;20026;-65
2022/07/02 08:41:02;;;;;;;18.25;2.92;;;;;;;;;;6118573;23;20029;-64
2022/07/02 08:43:30;;;;;;;11.73;2.60;;;;;;;;;;6100741;23;20613;-65
2022/07/02 08:46:02;;;;;;;6.00;2.15;;;;;;;;;;6110035;23;20030;-63
2022/07/02 08:48:38;;;;;;;11.68;2.53;;;;;;;;;;6083272;23;20029;-65
2022/07/02 08:51:06;;;;;;;18.45;3.30;;;;;;;;;;6084884;23;20022;-52
2022/07/02 08:53:33;;;;;;;13.70;2.97;;;;;;;;;;6084463;23;20019;-59
2022/07/02 08:56:08;;;;;;;12.30;2.65;;;;;;;;;;6084426;23;20357;-64
2022/07/02 08:58:35;;;;;;;15.98;2.70;;;;;;;;;;6085502;23;20033;-64
2022/07/02 09:01:02;;;;;;;;;;;;;;;;;;5043098;23;10000845;-63
2022/07/02 09:03:38;;;;;;;8.50;2.70;;;;;;;;;;6116637;23;19958;-64
2022/07/02 09:06:06;;;;;;;9.93;2.53;;;;;;;;;;6113173;23;20021;-64
2022/07/02 09:08:34;;;;;;;10.35;2.40;;;;;;;;;;6116994;23;20025;-64
2022/07/02 09:11:30;;;;;;;14.77;3.10;;;;;;;;;;6114335;23;20516;-63
2022/07/02 09:14:15;;;;;;;10.63;2.45;;;;;;;;;;6119767;23;20093;-59
2022/07/02 09:16:49;;;;;;;6.57;2.35;;;;;;;;;;6116985;23;20081;-59
2022/07/02 09:19:16;;;;;;;;;;;;;;;;;;6118798;23;20021;-59
2022/07/02 09:21:43;;;;;;;8.57;2.33;;;;;;;;;;6117852;23;20302;-59
2022/07/02 09:24:30;;;;;;;11.73;2.75;;;;;;;;;;6118641;23;20096;-59
2022/07/02 09:27:04;;;;;;;9.27;2.42;;;;;;;;;;6116123;23;20022;-59
2022/07/02 09:29:41;;;;;;;18.73;2.85;;;;;;;;;;6115413;23;20459;-59
2022/07/02 09:32:08;;;;;;;14.40;2.67;;;;;;;;;;6115794;23;20022;-59
2022/07/02 09:34:36;;;;;;;15.07;2.78;;;;;;;;;;6119919;23;20026;-64
2022/07/02 09:37:20;;;;;;;9.05;2.42;;;;;;;;;;6119456;23;20030;-64
2022/07/02 09:39:48;;;;;;;8.15;2.22;;;;;;;;;;6119695;23;20030;-63
2022/07/02 09:42:28;;;;;;;8.68;2.45;;;;;;;;;;6116025;23;20069;-63
2022/07/02 09:44:56;;;;;;;10.35;2.70;;;;;;;;;;6098049;23;20029;-63
2022/07/02 09:47:33;;;;;;;8.82;2.25;;;;;;;;;;6115182;23;20026;-63
2022/07/02 09:50:08;;;;;;;11.93;2.58;;;;;;;;;;6109449;23;20021;-63
2022/07/02 09:53:01;;;;;;;12.70;2.60;;;;;;;;;;6114731;23;20796;-57
2022/07/02 09:55:36;;;;;;;6.35;2.40;;;;;;;;;;6119051;23;20084;-58
2022/07/02 09:58:11;;;;;;;12.93;2.17;;;;;;;;;;6098910;23;20026;-59
2022/07/02 10:00:45;;;;;;;8.40;2.45;;;;;;;;;;6117126;23;20029;-58
2022/07/02 10:03:19;;;;;;;10.93;2.35;;;;;;;;;;6091463;23;20029;-58
2022/07/02 10:05:48;;;;;;;12.13;2.65;;;;;;;;;;6119807;23;20079;-60
2022/07/02 10:08:17;;;;;;;9.98;2.25;;;;;;;;;;6118661;23;20026;-62
2022/07/02 10:10:51;;;;;;;7.05;2.15;;;;;;;;;;6107150;23;20033;-63
2022/07/02 10:13:18;;;;;;;7.00;2.42;;;;;;;;;;6093414;23;20029;-63
2022/07/02 10:15:56;;;;;;;7.50;1.85;;;;;;;;;;6115165;23;20104;-63
2022/07/02 10:18:36;;;;;;;7.72;2.17;;;;;;;;;;6097854;23;20877;-63
2022/07/02 10:23:51;;;;;;;5.35;1.63;;;;;;;;;;6024806;23;20023;-56
2022/07/02 10:26:25;;;;;;;9.27;2.03;;;;;;;;;;6014039;23;20051;-54
2022/07/02 10:28:54;;;;;;;7.50;1.98;;;;;;;;;;6010311;23;20138;-53
2022/07/02 10:31:21;;;;;;;8.18;2.10;;;;;;;;;;6011240;23;20023;-57
2022/07/02 10:34:04;;;;;;;9.48;1.95;;;;;;;;;;6014755;23;20064;-50
2022/07/02 10:36:32;;;;;;;10.10;2.10;;;;;;;;;;6031455;23;20079;-56
2022/07/02 10:39:06;;;;;;;6.45;1.95;;;;;;;;;;6031100;23;20038;-47
2022/07/02 10:41:33;;;;;;;7.53;1.83;;;;;;;;;;6028161;23;20031;-57
2022/07/02 10:44:00;;;;;;;9.32;1.98;;;;;;;;;;6011539;23;20544;-56
2022/07/02 10:46:35;;;;;;;6.93;2.17;;;;;;;;;;6000589;23;20243;-55
2022/07/02 10:49:06;;;;;;;7.28;2.30;;;;;;;;;;6027470;23;20029;-54
2022/07/02 10:51:35;;;;;;;6.05;1.80;;;;;;;;;;6031704;23;20051;-57
2022/07/02 10:54:09;;;;;;;7.18;1.92;;;;;;;;;;6031661;23;20031;-56
2022/07/02 10:56:46;;;;;;;5.47;1.70;;;;;;;;;;6031851;23;20075;-52
2022/07/02 10:59:24;;;;;;;9.60;2.28;;;;;;;;;;6031799;23;20473;-55
2022/07/02 11:02:08;;;;;;;7.10;1.63;;;;;;;;;;6070221;23;20031;-56
2022/07/02 11:04:43;;;;;;;5.60;1.83;;;;;;;;;;6088117;23;20061;-56
2022/07/02 11:07:12;;;;;;;9.23;2.28;;;;;;;;;;6072088;23;20026;-54
2022/07/02 11:09:46;;;;;;;6.00;1.83;;;;;;;;;;6087866;23;20031;-54
2022/07/02 11:12:17;;;;;;;6.05;1.92;;;;;;;;;;6089831;23;20511;-56
2022/07/02 11:14:53;;;;;;;8.48;1.90;;;;;;;;;;6088782;23;20483;-57
2022/07/02 11:17:41;;;;;;;8.88;2.10;;;;;;;;;;6088899;23;20105;-57
2022/07/02 11:20:15;;;;;;;7.35;1.92;;;;;;;;;;6087566;23;20034;-58
2022/07/02 11:22:42;;;;;;;6.22;1.70;;;;;;;;;;6083926;23;20651;-57
2022/07/02 11:25:09;;;;;;;8.35;2.28;;;;;;;;;;6083244;23;20065;-54
2022/07/02 11:27:37;;;;;;;9.65;2.00;;;;;;;;;;6089559;23;20363;-55
2022/07/02 11:30:04;;;;;;;10.90;2.30;;;;;;;;;;6087686;23;20504;-51
2022/07/02 11:32:36;;;;;;;6.38;2.30;;;;;;;;;;6087560;23;20026;-55
2022/07/02 11:35:03;;;;;;;10.23;2.00;;;;;;;;;;6092212;23;20029;-55
2022/07/02 11:37:30;;;;;;;;;;;;;;;;;;6092747;23;20086;-54
2022/07/02 11:39:58;;;;;;;9.65;2.00;;;;;;;;;;6090787;23;19924;-58
2022/07/02 11:42:35;;;;;;;7.97;1.95;;;;;;;;;;6091899;23;20062;-56
2022/07/02 11:45:02;;;;;;;6.30;1.65;;;;;;;;;;6091558;23;20058;-55
2022/07/02 11:47:29;;;;;;;;;;;;;;;;;;6092002;23;20077;-57
2022/07/02 11:49:57;;;;;;;7.20;2.03;;;;;;;;;;6091130;23;20303;-57
2022/07/02 11:52:24;;;;;;;;;;;;;;;;;;6092115;23;20085;-57
2022/07/02 11:54:51;;;;;;;6.82;2.33;;;;;;;;;;6092657;23;19924;-57
2022/07/02 11:57:18;;;;;;;8.20;2.00;;;;;;;;;;6091714;23;20030;-57
2022/07/02 11:59:52;;;;;;;7.15;1.95;;;;;;;;;;6093251;23;20058;-56
2022/07/02 12:02:19;;;;;;;6.70;1.80;;;;;;;;;;6119964;23;20129;-58
2022/07/02 12:04:47;;;;;;;;;;;;;;;;;;6119053;23;20057;-56
2022/07/02 12:07:15;;;;;;;8.18;1.65;;;;;;;;;;6118930;23;20262;-57
2022/07/02 12:09:42;;;;;;;10.07;1.80;;;;;;;;;;6119763;23;20026;-54
2022/07/02 12:12:09;;;;;;;4.72;1.83;;;;;;;;;;6117181;23;20025;-56
2022/07/02 12:14:37;;;;;;;;;;;;;;;;;;6119485;23;20022;-57
2022/07/02 12:17:08;;;;;;;8.30;1.73;;;;;;;;;;6119681;23;19984;-55
2022/07/02 12:19:36;;;;;;;9.75;2.42;;;;;;;;;;6117947;23;20025;-57
2022/07/02 12:22:05;;;;;;;6.18;1.88;;;;;;;;;;6118316;23;20530;-55
2022/07/02 12:24:35;;;;;;;5.50;1.77;;;;;;;;;;6118903;23;20057;-52
2022/07/02 12:27:06;;;;;;;8.60;2.08;;;;;;;;;;6119072;23;20741;-57
2022/07/02 12:32:23;;;;;;;10.20;2.40;;;;;;;;;;6118376;23;20225;-57
2022/07/02 12:34:50;;;;;;;;;;;;;;;;;;6119507;23;20032;-56
2022/07/02 12:37:22;;;;;;;6.57;2.05;;;;;;;;;;6118628;23;20011;-53
2022/07/02 12:39:50;;;;;;;5.18;1.80;;;;;;;;;;6118756;23;20053;-51
2022/07/02 12:42:19;;;;;;;6.00;1.75;;;;;;;;;;6117128;23;20041;-57
2022/07/02 12:44:52;;;;;;;6.63;2.10;;;;;;;;;;6120888;23;20022;-54
2022/07/02 12:47:23;;;;;;;5.35;1.88;;;;;;;;;;6118197;23;20037;-53
2022/07/02 12:50:02;;;;;;;13.32;2.15;;;;;;;;;;6120446;23;20468;-56
2022/07/02 12:52:30;;;;;;;6.47;2.15;;;;;;;;;;6120361;23;20029;-55
2022/07/02 12:54:58;;;;;;;5.30;1.80;;;;;;;;;;6121282;23;20053;-56
2022/07/02 12:57:26;;;;;;;9.20;1.95;;;;;;;;;;6117740;23;20089;-58
2022/07/02 12:59:54;;;;;;;9.55;2.03;;;;;;;;;;6119919;23;20737;-54
2022/07/02 13:02:25;;;;;;;8.80;2.10;;;;;;;;;;6118493;23;20053;-57
2022/07/02 13:04:54;;;;;;;8.07;1.85;;;;;;;;;;6119648;23;20025;-57
2022/07/02 13:07:21;;;;;;;6.18;2.10;;;;;;;;;;6119487;23;20030;-54
2022/07/02 13:09:48;;;;;;;7.30;1.73;;;;;;;;;;6119330;23;20511;-57
2022/07/02 13:12:16;;;;;;;5.03;2.05;;;;;;;;;;6120639;23;20100;-54
2022/07/02 13:14:44;;;;;;;5.35;1.75;;;;;;;;;;6120339;23;20065;-57
2022/07/02 13:17:14;;;;;;;5.20;1.90;;;;;;;;;;6117835;23;20026;-56
2022/07/02 13:20:01;;;;;;;7.28;1.73;;;;;;;;;;6117908;23;20127;-58
2022/07/02 13:22:29;;;;;;;7.90;2.20;;;;;;;;;;6119212;23;20054;-56
2022/07/02 13:24:56;;;;;;;;;;;;;;;;;;6120577;23;20080;-54
2022/07/02 13:27:23;;;;;;;7.10;2.20;;;;;;;;;;6118005;23;19917;-57
2022/07/02 13:29:51;;;;;;;7.55;1.90;;;;;;;;;;6119655;23;20621;-54
2022/07/02 13:32:18;;;;;;;4.55;1.58;;;;;;;;;;6118433;23;20030;-54
2022/07/02 13:34:46;;;;;;;5.50;1.90;;;;;;;;;;6118193;23;20066;-57
2022/07/02 13:37:13;;;;;;;3.85;1.92;;;;;;;;;;6119522;23;20033;-56
2022/07/02 13:39:43;;;;;;;6.05;2.00;;;;;;;;;;6119816;23;20025;-56
2022/07/02 13:42:11;;;;;;;6.63;2.00;;;;;;;;;;6120316;23;20511;-56
2022/07/02 13:44:38;;;;;;;4.50;1.77;;;;;;;;;;6118719;23;20475;-55
2022/07/02 13:47:06;;;;;;;7.43;1.77;;;;;;;;;;6118556;23;20025;-55
2022/07/02 13:49:33;;;;;;;6.38;1.92;;;;;;;;;;6118801;23;20026;-57
2022/07/02 13:52:02;;;;;;;10.43;2.13;;;;;;;;;;6119831;23;20061;-57
2022/07/02 13:54:29;;;;;;;6.15;2.20;;;;;;;;;;6120386;23;20363;-55
2022/07/02 13:56:56;;;;;;;;;;;;;;;;;;6116893;23;20064;-57
2022/07/02 13:59:23;;;;;;;5.10;1.98;;;;;;;;;;6118456;23;20393;-57
2022/07/02 14:01:51;;;;;;;;;;;;;;;;;;6118716;23;20025;-56
2022/07/02 14:04:18;;;;;;;6.05;1.70;;;;;;;;;;6120179;23;19948;-57
2022/07/02 14:06:45;;;;;;;;;;;;;;;;;;6118690;23;20030;-57
2022/07/02 14:09:12;;;;;;;11.57;2.33;;;;;;;;;;6119081;23;19920;-57
2022/07/02 14:11:40;;;;;;;8.07;1.88;;;;;;;;;;6120047;23;20080;-54
2022/07/02 14:14:08;;;;;;;7.35;1.77;;;;;;;;;;6118803;23;20415;-57
2022/07/02 14:16:35;;;;;;;6.68;1.75;;;;;;;;;;6117424;23;20534;-57
2022/07/02 14:19:03;;;;;;;5.38;1.90;;;;;;;;;;6098237;23;20033;-54
2022/07/02 14:21:31;;;;;;;5.63;1.67;;;;;;;;;;6088365;23;20026;-58
2022/07/02 14:23:58;;;;;;;9.45;2.47;;;;;;;;;;6089614;23;20062;-56
2022/07/02 14:26:25;;;;;;;5.95;2.03;;;;;;;;;;6091191;23;20029;-57
2022/07/02 14:28:52;;;;;;;5.97;1.95;;;;;;;;;;6090363;23;20026;-56
2022/07/02 14:31:20;;;;;;;3.55;1.80;;;;;;;;;;6090650;23;20023;-53
2022/07/02 14:33:47;;;;;;;;;;;;;;;;;;6091176;23;20026;-55
2022/07/02 14:36:14;;;;;;;6.00;1.90;;;;;;;;;;6089954;23;20354;-56
2022/07/02 14:38:42;;;;;;;5.32;1.95;;;;;;;;;;6091043;23;20033;-50
2022/07/02 14:43:55;;;;;;;5.32;1.80;;;;;;;;;;6088083;23;20089;-50
2022/07/02 14:46:29;;;;;;;12.15;2.10;;;;;;;;;;6088827;23;20033;-46
2022/07/02 14:48:57;;;;;;;5.03;1.77;;;;;;;;;;6089366;23;20087;-48
2022/07/02 14:51:25;;;;;;;8.52;2.08;;;;;;;;;;6088045;23;20058;-47
2022/07/02 14:53:52;;;;;;;7.40;2.50;;;;;;;;;;6088549;23;20057;-53
2022/07/02 14:56:23;;;;;;;6.43;2.05;;;;;;;;;;6090144;23;20026;-55
2022/07/02 14:58:50;;;;;;;5.68;1.85;;;;;;;;;;6090781;23;20037;-55
2022/07/02 15:01:17;;;;;;;7.22;2.40;;;;;;;;;;6087486;23;20045;-54
2022/07/02 15:03:45;;;;;;;;;;;;;;;;;;6091330;23;20333;-55
2022/07/02 15:06:12;;;;;;;5.82;2.13;;;;;;;;;;6087745;23;19921;-52
2022/07/02 15:08:40;;;;;;;5.60;2.17;;;;;;;;;;6088825;23;20451;-56